createdAt,value
2017-08-30T00:00:06.781Z,99.90
2017-08-30T00:02:34.863Z,99.90
2017-08-30T00:05:03.699Z,99.90
2017-08-30T00:07:31.779Z,99.90
2017-08-30T00:10:00.659Z,99.90
2017-08-30T00:12:28.733Z,99.90
2017-08-30T00:14:56.884Z,99.90
2017-08-30T00:17:24.999Z,99.90
2017-08-30T00:19:53.330Z,99.90
2017-08-30T00:22:22.219Z,99.90
2017-08-30T00:28:02.097Z,99.90
2017-08-30T00:30:30.195Z,99.90
2017-08-30T00:32:58.342Z,99.90
2017-08-30T00:35:26.422Z,99.90
2017-08-30T00:37:54.508Z,99.90
2017-08-30T00:40:23.353Z,99.90
2017-08-30T00:42:51.436Z,99.90
2017-08-30T00:45:19.515Z,99.90
2017-08-30T00:47:47.600Z,99.90
2017-08-30T00:50:15.696Z,99.90
2017-08-30T00:52:43.776Z,99.90
2017-08-30T00:55:11.858Z,99.90
2017-08-30T00:57:39.953Z,99.90
2017-08-30T01:00:08.028Z,99.90
2017-08-30T01:02:36.098Z,99.90
2017-08-30T01:05:04.187Z,99.90
2017-08-30T01:07:32.263Z,99.90
2017-08-30T01:10:01.111Z,99.90
2017-08-30T01:12:29.180Z,99.90
2017-08-30T01:14:57.266Z,99.90
2017-08-30T01:17:25.333Z,99.90
2017-08-30T01:19:53.424Z,99.90
2017-08-30T01:22:21.526Z,99.90
2017-08-30T01:24:49.627Z,99.90
2017-08-30T01:27:17.699Z,99.90
2017-08-30T01:29:45.837Z,99.90
2017-08-30T01:32:13.913Z,99.90
2017-08-30T01:34:41.983Z,99.90
2017-08-30T01:37:10.066Z,99.90
2017-08-30T01:39:38.135Z,99.90
2017-08-30T01:42:06.235Z,99.90
2017-08-30T01:44:34.302Z,99.90
2017-08-30T01:47:02.387Z,99.90
2017-08-30T01:49:30.456Z,99.90
2017-08-30T01:51:58.523Z,99.90
2017-08-30T01:54:26.610Z,99.90
2017-08-30T01:56:54.684Z,99.90
2017-08-30T01:59:22.771Z,99.90
2017-08-30T02:01:50.850Z,99.90
2017-08-30T02:04:18.928Z,99.90
2017-08-30T02:06:47.003Z,99.90
2017-08-30T02:09:15.092Z,99.90
2017-08-30T02:11:43.179Z,99.90
2017-08-30T02:14:11.264Z,99.90
2017-08-30T02:16:39.347Z,99.90
2017-08-30T02:19:07.425Z,99.90
2017-08-30T02:21:35.507Z,99.90
2017-08-30T02:24:03.592Z,99.90
2017-08-30T02:26:31.682Z,99.90
2017-08-30T02:28:59.779Z,99.90
2017-08-30T02:31:27.885Z,99.90
2017-08-30T02:33:55.975Z,99.90
2017-08-30T02:36:24.065Z,99.90
2017-08-30T02:38:52.152Z,99.90
2017-08-30T02:41:20.249Z,99.90
2017-08-30T02:43:49.103Z,99.90
2017-08-30T02:46:17.183Z,99.90
2017-08-30T02:48:45.263Z,99.90
2017-08-30T02:51:13.352Z,99.90
2017-08-30T02:53:42.220Z,99.90
2017-08-30T02:56:10.307Z,99.90
2017-08-30T02:58:38.387Z,99.90
2017-08-30T03:01:07.236Z,99.90
2017-08-30T03:03:35.317Z,99.90
2017-08-30T03:06:03.388Z,99.90
2017-08-30T03:08:31.468Z,99.90
2017-08-30T03:10:59.551Z,99.90
2017-08-30T03:13:27.636Z,99.90
2017-08-30T03:15:55.715Z,99.90
2017-08-30T03:18:23.791Z,99.90
2017-08-30T03:20:51.879Z,99.90
2017-08-30T03:23:19.968Z,99.90
2017-08-30T03:25:48.068Z,99.90
2017-08-30T03:28:16.154Z,99.90
2017-08-30T03:30:44.236Z,99.90
2017-08-30T03:33:12.320Z,99.90
2017-08-30T03:35:40.421Z,99.90
2017-08-30T03:38:08.498Z,99.90
2017-08-30T03:40:36.580Z,99.90
2017-08-30T03:43:04.683Z,99.90
2017-08-30T03:45:32.760Z,99.90
2017-08-30T03:48:00.839Z,99.90
2017-08-30T03:50:28.910Z,99.90
2017-08-30T03:52:57.009Z,99.90
2017-08-30T03:55:25.101Z,99.90
2017-08-30T03:57:53.178Z,99.90
2017-08-30T04:00:21.272Z,99.90
2017-08-30T04:02:49.369Z,99.90
2017-08-30T04:05:17.454Z,99.90
2017-08-30T04:07:45.546Z,99.90
2017-08-30T04:10:13.635Z,99.90
2017-08-30T04:12:41.713Z,99.90
2017-08-30T04:15:09.803Z,99.90
2017-08-30T04:17:37.893Z,99.90
2017-08-30T04:20:05.976Z,99.90
2017-08-30T04:22:34.054Z,99.90
2017-08-30T04:25:02.150Z,99.90
2017-08-30T04:27:30.227Z,99.90
2017-08-30T04:29:59.087Z,99.90
2017-08-30T04:32:27.175Z,99.90
2017-08-30T04:34:55.267Z,99.90
2017-08-30T04:37:24.123Z,99.90
2017-08-30T04:39:52.206Z,99.90
2017-08-30T04:42:20.299Z,99.90
2017-08-30T04:44:48.379Z,99.90
2017-08-30T04:47:16.475Z,99.90
2017-08-30T04:49:44.564Z,99.90
2017-08-30T04:52:12.662Z,99.90
2017-08-30T04:54:41.527Z,99.90
2017-08-30T04:57:09.632Z,99.90
2017-08-30T04:59:38.473Z,99.90
2017-08-30T05:02:06.558Z,99.90
2017-08-30T05:04:34.646Z,99.90
2017-08-30T05:07:02.744Z,99.90
2017-08-30T05:09:30.835Z,99.90
2017-08-30T05:11:58.925Z,99.90
2017-08-30T05:14:27.017Z,99.90
2017-08-30T05:16:55.098Z,99.90
2017-08-30T05:19:23.188Z,99.90
2017-08-30T05:21:51.280Z,99.90
2017-08-30T05:24:19.370Z,99.90
2017-08-30T05:26:47.450Z,99.90
2017-08-30T05:29:15.610Z,99.90
2017-08-30T05:31:43.687Z,99.90
2017-08-30T05:34:11.772Z,99.90
2017-08-30T05:36:39.863Z,99.90
2017-08-30T05:39:07.943Z,99.90
2017-08-30T05:41:36.028Z,99.90
2017-08-30T05:44:04.107Z,99.90
2017-08-30T05:46:32.201Z,99.90
2017-08-30T05:49:00.296Z,99.90
2017-08-30T05:51:28.391Z,99.90
2017-08-30T05:53:56.472Z,99.90
2017-08-30T05:56:24.563Z,99.90
2017-08-30T05:58:52.649Z,99.90
2017-08-30T06:01:20.739Z,99.90
2017-08-30T06:03:48.820Z,99.90
2017-08-30T06:06:17.312Z,99.90
2017-08-30T06:08:45.401Z,99.90
2017-08-30T06:11:13.482Z,99.90
2017-08-30T06:13:41.563Z,99.90
2017-08-30T06:16:09.639Z,99.90
2017-08-30T06:18:37.739Z,99.90
2017-08-30T06:21:05.825Z,99.90
2017-08-30T06:23:33.906Z,99.90
2017-08-30T06:26:01.976Z,99.90
2017-08-30T06:28:30.067Z,99.90
2017-08-30T06:30:58.903Z,99.90
2017-08-30T06:33:26.978Z,99.90
2017-08-30T06:35:55.064Z,99.90
2017-08-30T06:38:23.135Z,99.90
2017-08-30T06:40:51.231Z,99.90
2017-08-30T06:43:20.072Z,99.90
2017-08-30T06:45:48.153Z,99.90
2017-08-30T06:48:16.232Z,99.90
2017-08-30T06:50:44.319Z,99.90
2017-08-30T06:53:12.394Z,99.90
2017-08-30T06:55:41.250Z,99.90
2017-08-30T06:58:09.319Z,99.90
2017-08-30T07:00:37.747Z,99.90
2017-08-30T07:03:05.823Z,99.90
2017-08-30T07:05:33.894Z,99.90
2017-08-30T07:08:01.990Z,99.90
2017-08-30T07:10:30.063Z,99.90
2017-08-30T07:12:58.148Z,99.90
2017-08-30T07:15:26.219Z,99.90
2017-08-30T07:17:54.307Z,99.90
2017-08-30T07:20:22.372Z,99.90
2017-08-30T07:22:50.452Z,99.90
2017-08-30T07:25:19.303Z,99.90
2017-08-30T07:27:47.387Z,99.90
2017-08-30T07:30:15.459Z,99.50
2017-08-30T07:32:43.544Z,99.30
2017-08-30T07:35:11.624Z,99.30
2017-08-30T07:37:39.720Z,99.00
2017-08-30T07:40:07.792Z,98.90
2017-08-30T07:42:35.859Z,98.90
2017-08-30T07:45:03.947Z,99.20
2017-08-30T07:47:32.019Z,98.20
2017-08-30T07:50:00.104Z,96.70
2017-08-30T07:52:28.175Z,97.40
2017-08-30T07:54:56.260Z,98.20
2017-08-30T07:57:24.335Z,96.70
2017-08-30T07:59:52.422Z,95.20
2017-08-30T08:02:20.503Z,96.10
2017-08-30T08:04:48.588Z,97.90
2017-08-30T08:07:16.659Z,98.00
2017-08-30T08:09:44.751Z,97.30
2017-08-30T08:12:12.831Z,96.60
2017-08-30T08:14:40.911Z,95.70
2017-08-30T08:17:08.997Z,95.60
2017-08-30T08:19:37.071Z,94.80
2017-08-30T08:22:05.151Z,95.40
2017-08-30T08:24:33.222Z,94.90
2017-08-30T08:27:01.304Z,94.80
2017-08-30T08:29:30.144Z,94.40
2017-08-30T08:31:58.224Z,94.40
2017-08-30T08:34:26.305Z,94.60
2017-08-30T08:36:54.393Z,93.50
2017-08-30T08:39:22.468Z,93.50
2017-08-30T08:41:50.552Z,94.00
2017-08-30T08:44:19.394Z,93.30
2017-08-30T08:46:47.483Z,93.30
2017-08-30T08:49:15.563Z,92.90
2017-08-30T08:51:43.635Z,92.90
2017-08-30T08:54:11.725Z,92.00
2017-08-30T08:56:39.802Z,93.30
2017-08-30T08:59:07.883Z,92.20
2017-08-30T09:01:35.969Z,92.50
2017-08-30T09:04:04.043Z,91.90
2017-08-30T09:06:32.111Z,91.00
2017-08-30T09:09:00.199Z,90.20
2017-08-30T09:11:28.277Z,90.60
2017-08-30T09:13:56.361Z,88.50
2017-08-30T09:16:24.452Z,87.50
2017-08-30T09:18:52.551Z,87.40
2017-08-30T09:21:20.619Z,87.20
2017-08-30T09:23:49.466Z,89.90
2017-08-30T09:26:17.551Z,89.90
2017-08-30T09:28:45.627Z,87.20
2017-08-30T09:31:13.715Z,84.70
2017-08-30T09:33:41.799Z,85.00
2017-08-30T09:36:09.918Z,81.70
2017-08-30T09:38:37.984Z,82.30
2017-08-30T09:41:06.068Z,78.60
2017-08-30T09:43:34.134Z,75.00
2017-08-30T09:46:03.011Z,75.80
2017-08-30T09:48:31.080Z,75.80
2017-08-30T09:50:59.181Z,76.00
2017-08-30T09:53:27.257Z,75.00
2017-08-30T09:55:55.337Z,75.10
2017-08-30T09:58:23.428Z,74.90
2017-08-30T10:00:51.510Z,73.90
2017-08-30T10:03:19.594Z,73.70
2017-08-30T10:05:47.668Z,72.90
2017-08-30T10:08:15.751Z,73.40
2017-08-30T10:10:44.592Z,71.20
2017-08-30T10:13:12.681Z,71.10
2017-08-30T10:15:40.757Z,72.50
2017-08-30T10:18:08.834Z,74.80
2017-08-30T10:20:36.906Z,74.30
2017-08-30T10:23:04.990Z,74.30
2017-08-30T10:25:33.071Z,75.50
2017-08-30T10:28:01.161Z,74.20
2017-08-30T10:30:29.252Z,72.50
2017-08-30T10:32:57.323Z,71.70
2017-08-30T10:35:25.422Z,70.60
2017-08-30T10:37:53.498Z,71.30
2017-08-30T10:40:21.584Z,69.10
2017-08-30T10:42:50.426Z,63.80
2017-08-30T10:45:18.516Z,63.80
2017-08-30T10:47:46.592Z,65.30
2017-08-30T10:50:14.668Z,63.70
2017-08-30T10:52:42.748Z,63.40
2017-08-30T10:55:10.853Z,64.80
2017-08-30T10:57:38.930Z,61.00
2017-08-30T11:00:07.011Z,62.80
2017-08-30T11:02:35.092Z,61.50
2017-08-30T11:05:03.181Z,61.40
2017-08-30T11:07:31.252Z,60.60
2017-08-30T11:09:59.333Z,59.20
2017-08-30T11:12:27.415Z,56.40
2017-08-30T11:14:55.487Z,59.70
2017-08-30T11:17:23.570Z,58.90
2017-08-30T11:19:51.650Z,56.80
2017-08-30T11:22:19.726Z,56.10
2017-08-30T11:24:47.803Z,57.70
2017-08-30T11:27:15.887Z,56.70
2017-08-30T11:29:43.955Z,55.80
2017-08-30T11:32:12.808Z,56.10
2017-08-30T11:34:40.879Z,56.10
2017-08-30T11:37:08.950Z,55.40
2017-08-30T11:39:37.024Z,54.30
2017-08-30T11:42:05.108Z,51.80
2017-08-30T11:44:33.175Z,52.00
2017-08-30T11:47:01.243Z,52.70
2017-08-30T11:49:29.319Z,53.10
2017-08-30T11:51:57.391Z,52.20
2017-08-30T11:54:25.470Z,53.30
2017-08-30T11:56:53.547Z,53.40
2017-08-30T11:59:21.632Z,53.40
2017-08-30T12:01:49.708Z,53.40
2017-08-30T12:04:17.799Z,53.30
2017-08-30T12:06:46.648Z,52.40
2017-08-30T12:09:14.735Z,52.10
2017-08-30T12:11:42.815Z,51.60
2017-08-30T12:14:10.901Z,52.00
2017-08-30T12:16:39.741Z,53.40
2017-08-30T12:19:07.821Z,53.30
2017-08-30T12:21:35.893Z,53.70
2017-08-30T12:24:03.969Z,55.80
2017-08-30T12:26:32.064Z,54.00
2017-08-30T12:29:00.911Z,53.00
2017-08-30T12:31:29.000Z,52.90
2017-08-30T12:33:57.072Z,50.40
2017-08-30T12:36:25.147Z,51.30
2017-08-30T12:38:58.913Z,52.30
2017-08-30T12:41:26.995Z,53.70
2017-08-30T12:43:55.068Z,54.30
2017-08-30T12:46:23.145Z,54.00
2017-08-30T12:48:51.215Z,54.70
2017-08-30T12:51:19.311Z,55.60
2017-08-30T12:53:47.396Z,55.90
2017-08-30T12:56:15.468Z,57.40
2017-08-30T12:58:43.548Z,57.80
2017-08-30T13:01:12.400Z,57.70
2017-08-30T13:03:40.485Z,57.70
2017-08-30T13:06:08.551Z,58.30
2017-08-30T13:08:36.641Z,58.50
2017-08-30T13:11:05.487Z,59.10
2017-08-30T13:13:33.566Z,59.10
2017-08-30T13:16:01.648Z,58.10
2017-08-30T13:18:29.729Z,56.60
2017-08-30T13:20:57.806Z,57.40
2017-08-30T13:23:26.655Z,55.60
2017-08-30T13:25:54.731Z,55.50
2017-08-30T13:28:22.821Z,56.10
2017-08-30T13:30:50.895Z,56.40
2017-08-30T13:33:19.742Z,57.60
2017-08-30T13:35:47.814Z,57.60
2017-08-30T13:38:15.933Z,58.20
2017-08-30T13:40:43.999Z,57.70
2017-08-30T13:43:12.836Z,57.40
2017-08-30T13:45:40.916Z,57.30
2017-08-30T13:48:08.998Z,57.00
2017-08-30T13:50:37.088Z,55.30
2017-08-30T13:53:05.169Z,56.90
2017-08-30T13:55:34.012Z,58.10
2017-08-30T13:58:02.082Z,58.10
2017-08-30T14:00:30.161Z,58.30
2017-08-30T14:02:58.231Z,58.70
2017-08-30T14:05:26.315Z,59.50
2017-08-30T14:07:54.396Z,59.90
2017-08-30T14:10:22.485Z,60.30
2017-08-30T14:12:50.555Z,60.50
2017-08-30T14:15:18.640Z,60.40
2017-08-30T14:17:46.716Z,61.80
2017-08-30T14:20:14.812Z,61.70
2017-08-30T14:22:42.897Z,62.20
2017-08-30T14:25:10.977Z,62.60
2017-08-30T14:27:39.059Z,63.40
2017-08-30T14:30:07.137Z,64.00
2017-08-30T14:32:35.229Z,64.40
2017-08-30T14:35:03.311Z,64.90
2017-08-30T14:37:31.405Z,64.80
2017-08-30T14:40:00.579Z,65.30
2017-08-30T14:42:28.659Z,65.50
2017-08-30T14:44:56.734Z,65.30
2017-08-30T14:47:24.824Z,65.20
2017-08-30T14:49:52.902Z,66.10
2017-08-30T14:52:20.992Z,66.30
2017-08-30T14:54:49.132Z,66.30
2017-08-30T14:57:17.233Z,66.10
2017-08-30T14:59:45.312Z,67.00
2017-08-30T15:02:14.179Z,66.10
2017-08-30T15:04:42.271Z,66.10
2017-08-30T15:07:11.112Z,66.00
2017-08-30T15:09:39.272Z,66.00
2017-08-30T15:12:07.348Z,67.00
2017-08-30T15:14:35.437Z,68.80
2017-08-30T15:17:03.517Z,68.20
2017-08-30T15:19:31.617Z,67.90
2017-08-30T15:21:59.865Z,66.70
2017-08-30T15:24:27.955Z,66.70
2017-08-30T15:26:56.126Z,66.60
2017-08-30T15:29:24.187Z,67.30
2017-08-30T15:31:52.463Z,65.90
2017-08-30T15:34:21.448Z,67.50
2017-08-30T15:36:49.728Z,67.40
2017-08-30T15:39:17.988Z,67.00
2017-08-30T15:41:46.063Z,68.10
2017-08-30T15:44:14.158Z,67.90
2017-08-30T15:46:42.227Z,69.50
2017-08-30T15:49:10.304Z,68.80
2017-08-30T15:51:38.395Z,69.00
2017-08-30T15:54:06.474Z,69.10
2017-08-30T15:56:34.564Z,69.80
2017-08-30T15:59:02.642Z,69.80
2017-08-30T16:01:30.736Z,69.60
2017-08-30T16:03:58.816Z,69.40
2017-08-30T16:06:26.899Z,69.80
2017-08-30T16:08:54.992Z,69.60
2017-08-30T16:11:23.084Z,70.40
2017-08-30T16:13:51.164Z,69.90
2017-08-30T16:16:19.243Z,69.60
2017-08-30T16:18:47.323Z,70.20
2017-08-30T16:21:15.412Z,69.70
2017-08-30T16:23:44.257Z,71.20
2017-08-30T16:26:12.335Z,71.20
2017-08-30T16:28:40.419Z,71.50
2017-08-30T16:31:08.495Z,71.80
2017-08-30T16:33:37.351Z,72.60
2017-08-30T16:36:05.436Z,72.00
2017-08-30T16:38:33.520Z,71.10
2017-08-30T16:41:01.604Z,73.40
2017-08-30T16:43:30.451Z,71.90
2017-08-30T16:45:59.299Z,71.90
2017-08-30T16:48:27.379Z,71.90
2017-08-30T16:50:55.455Z,72.10
2017-08-30T16:53:23.536Z,72.30
2017-08-30T16:55:51.659Z,72.30
2017-08-30T16:58:19.712Z,73.50
2017-08-30T17:00:47.809Z,73.60
2017-08-30T17:03:15.889Z,74.40
2017-08-30T17:05:43.971Z,75.00
2017-08-30T17:08:12.053Z,74.80
2017-08-30T17:10:40.142Z,75.80
2017-08-30T17:13:08.226Z,75.60
2017-08-30T17:15:36.318Z,75.80
2017-08-30T17:18:04.398Z,75.70
2017-08-30T17:20:33.246Z,77.60
2017-08-30T17:23:01.327Z,77.50
2017-08-30T17:25:29.424Z,77.60
2017-08-30T17:27:57.517Z,77.80
2017-08-30T17:30:25.595Z,77.40
2017-08-30T17:32:53.683Z,77.50
2017-08-30T17:35:22.540Z,78.30
2017-08-30T17:37:50.627Z,78.20
2017-08-30T17:40:18.709Z,78.60
2017-08-30T17:42:46.799Z,79.90
2017-08-30T17:45:14.883Z,79.70
2017-08-30T17:47:42.963Z,81.40
2017-08-30T17:50:11.051Z,81.20
2017-08-30T17:52:39.149Z,81.60
2017-08-30T17:55:07.251Z,82.80
2017-08-30T17:57:35.343Z,83.40
2017-08-30T18:00:03.453Z,86.80
2017-08-30T18:02:31.572Z,86.40
2017-08-30T18:04:59.653Z,88.70
2017-08-30T18:07:27.726Z,90.10
2017-08-30T18:09:55.820Z,90.80
2017-08-30T18:12:23.904Z,90.80
2017-08-30T18:14:51.992Z,87.70
2017-08-30T18:17:20.072Z,89.20
2017-08-30T18:19:48.173Z,91.30
2017-08-30T18:22:16.259Z,90.00
2017-08-30T18:24:44.350Z,90.80
2017-08-30T18:27:12.430Z,87.60
2017-08-30T18:29:40.536Z,90.40
2017-08-30T18:32:08.640Z,87.60
2017-08-30T18:34:36.733Z,87.20
2017-08-30T18:37:04.808Z,86.60
2017-08-30T18:39:32.891Z,86.30
2017-08-30T18:42:00.985Z,88.70
2017-08-30T18:44:29.062Z,90.50
2017-08-30T18:49:37.819Z,92.10
2017-08-30T18:52:05.913Z,89.60
2017-08-30T18:54:34.846Z,89.60
2017-08-30T19:06:23.713Z,90.30
2017-08-30T19:08:51.799Z,90.10
2017-08-30T19:11:19.902Z,90.10
2017-08-30T19:13:47.999Z,91.40
2017-08-30T19:16:16.485Z,90.70
2017-08-30T19:27:43.963Z,90.90
2017-08-30T19:30:12.043Z,90.40
2017-08-30T19:32:40.135Z,90.80
2017-08-30T19:38:09.003Z,91.00
2017-08-30T19:40:37.092Z,91.00
2017-08-30T19:43:05.199Z,90.80
2017-08-30T19:45:33.283Z,91.00
2017-08-30T19:48:01.487Z,91.30
2017-08-30T19:55:06.639Z,91.90
2017-08-30T19:57:34.724Z,91.70
2017-08-30T20:00:02.903Z,91.40
2017-08-30T20:02:31.090Z,91.60
2017-08-30T20:04:59.239Z,91.50
2017-08-30T20:07:27.314Z,91.60
2017-08-30T20:09:55.511Z,91.70
2017-08-30T20:12:23.665Z,91.80
2017-08-30T20:14:51.742Z,91.90
2017-08-30T20:17:19.833Z,91.70
2017-08-30T20:19:47.923Z,91.90
2017-08-30T20:22:16.025Z,92.00
2017-08-30T20:24:44.104Z,92.20
2017-08-30T20:28:41.197Z,92.30
2017-08-30T20:31:09.293Z,92.50
2017-08-30T20:33:37.375Z,92.80
2017-08-30T20:36:05.470Z,93.10
2017-08-30T20:38:33.559Z,93.10
2017-08-30T20:41:01.651Z,93.20
2017-08-30T20:43:29.750Z,93.50
2017-08-30T20:45:57.841Z,93.50
2017-08-30T20:48:25.917Z,93.50
2017-08-30T20:50:54.083Z,93.60
2017-08-30T20:53:22.174Z,94.30
2017-08-30T20:55:50.258Z,94.50
2017-08-30T20:58:18.369Z,94.80
2017-08-30T21:00:46.650Z,94.70
2017-08-30T21:03:14.756Z,94.70
2017-08-30T21:05:42.837Z,95.30
2017-08-30T21:08:10.943Z,95.70
2017-08-30T21:10:39.800Z,95.80
2017-08-30T21:13:07.887Z,96.20
2017-08-30T21:15:36.144Z,95.80
2017-08-30T21:18:04.243Z,96.30
2017-08-30T21:20:33.167Z,96.30
2017-08-30T21:23:01.259Z,96.30
2017-08-30T21:25:29.352Z,97.20
2017-08-30T21:27:57.449Z,97.20
2017-08-30T21:30:25.548Z,98.80
2017-08-30T21:32:53.647Z,99.90
2017-08-30T21:35:21.751Z,99.90
2017-08-30T21:37:49.832Z,99.90
2017-08-30T21:40:18.692Z,99.90
2017-08-30T21:42:46.775Z,99.90
2017-08-30T21:45:14.863Z,99.90
2017-08-30T21:47:43.707Z,99.90
2017-08-30T21:50:11.791Z,99.90
2017-08-30T21:52:39.871Z,99.90
2017-08-30T21:55:07.968Z,99.90
2017-08-30T21:57:36.049Z,99.90
2017-08-30T22:00:04.149Z,99.90
2017-08-30T22:02:32.233Z,99.90
2017-08-30T22:05:00.315Z,99.90
2017-08-30T22:07:28.425Z,99.90
2017-08-30T22:09:56.507Z,99.90
2017-08-30T22:12:24.612Z,99.90
2017-08-30T22:14:52.700Z,99.90
2017-08-30T22:17:20.791Z,99.90
2017-08-30T22:19:49.649Z,99.90
2017-08-30T22:22:17.735Z,99.90
2017-08-30T22:24:45.820Z,99.90
2017-08-30T22:27:13.917Z,99.90
2017-08-30T22:29:42.026Z,99.90
2017-08-30T22:32:10.099Z,99.90
2017-08-30T22:34:38.200Z,99.90
2017-08-30T22:37:06.379Z,99.90
2017-08-30T22:39:34.471Z,99.90
2017-08-30T22:42:02.560Z,99.90
2017-08-30T22:44:30.652Z,99.90
2017-08-30T22:46:58.738Z,99.90
2017-08-30T22:49:26.879Z,99.90
2017-08-30T22:51:54.955Z,99.90
2017-08-30T22:54:23.149Z,99.90
2017-08-30T22:56:51.230Z,99.90
2017-08-30T22:59:20.088Z,99.90
2017-08-30T23:01:48.167Z,99.90
2017-08-30T23:04:16.242Z,99.90
2017-08-30T23:06:44.335Z,99.90
2017-08-30T23:09:12.516Z,99.90
2017-08-30T23:11:41.364Z,99.90
2017-08-30T23:14:09.435Z,99.90
2017-08-30T23:16:37.518Z,99.90
2017-08-30T23:19:05.607Z,99.90
2017-08-30T23:21:33.768Z,99.90
2017-08-30T23:24:01.855Z,99.90
2017-08-30T23:26:29.943Z,99.90
2017-08-30T23:28:58.796Z,99.90
2017-08-30T23:31:26.901Z,99.90
2017-08-30T23:33:54.980Z,99.90
2017-08-30T23:36:23.057Z,99.90
2017-08-30T23:38:51.132Z,99.90
2017-08-30T23:41:19.203Z,99.90
2017-08-30T23:43:47.292Z,99.90
2017-08-30T23:46:15.416Z,99.90
2017-08-30T23:48:43.479Z,99.90
2017-08-30T23:51:11.555Z,99.90
2017-08-30T23:53:39.689Z,99.90
2017-08-30T23:56:07.768Z,99.90
2017-08-30T23:58:35.859Z,99.90
